createdAt,value
2022-11-20T00:00:00.211Z,64.78
2022-11-20T00:01:00.203Z,60.10
2022-11-20T00:02:00.244Z,61.39
2022-11-20T00:03:00.186Z,62.04
2022-11-20T00:04:00.177Z,64.78
2022-11-20T00:05:00.164Z,69.45
2022-11-20T00:06:00.154Z,61.39
2022-11-20T00:07:00.263Z,63.00
2022-11-20T00:08:00.143Z,60.75
2022-11-20T00:09:00.132Z,62.68
2022-11-20T00:10:00.144Z,62.04
2022-11-20T00:11:00.111Z,62.20
2022-11-20T00:12:00.107Z,66.06
2022-11-20T00:13:00.106Z,63.33
2022-11-20T00:14:00.086Z,66.39
2022-11-20T00:15:00.083Z,63.81
2022-11-20T00:16:00.121Z,62.52
2022-11-20T00:17:00.118Z,60.91
2022-11-20T00:18:00.050Z,60.59
2022-11-20T00:19:00.040Z,63.16
2022-11-20T00:20:00.031Z,62.36
2022-11-20T00:21:00.021Z,63.00
2022-11-20T00:22:00.110Z,63.81
2022-11-20T00:23:00.003Z,64.94
2022-11-20T00:24:00.006Z,58.65
2022-11-20T00:24:59.988Z,59.30
2022-11-20T00:25:59.974Z,63.49
2022-11-20T00:26:59.973Z,65.10
2022-11-20T00:27:59.955Z,59.14
2022-11-20T00:28:59.950Z,61.71
2022-11-20T00:29:59.933Z,57.69
2022-11-20T00:30:59.925Z,61.23
2022-11-20T00:31:59.926Z,60.75
2022-11-20T00:32:59.910Z,61.87
2022-11-20T00:33:59.900Z,59.30
2022-11-20T00:34:59.890Z,61.07
2022-11-20T00:35:59.876Z,58.97
2022-11-20T00:36:59.876Z,63.65
2022-11-20T00:37:59.858Z,61.71
2022-11-20T00:38:59.849Z,56.07
2022-11-20T00:39:59.842Z,60.75
2022-11-20T00:40:59.831Z,61.23
2022-11-20T00:41:59.829Z,60.59
2022-11-20T00:42:59.812Z,60.91
2022-11-20T00:43:59.807Z,56.72
2022-11-20T00:44:59.799Z,59.94
2022-11-20T00:45:59.789Z,62.36
2022-11-20T00:46:59.788Z,58.33
2022-11-20T00:47:59.764Z,61.23
2022-11-20T00:48:59.755Z,61.39
2022-11-20T00:49:59.749Z,66.55
2022-11-20T00:50:59.742Z,60.75
2022-11-20T00:51:59.739Z,65.58
2022-11-20T00:52:59.720Z,57.04
2022-11-20T00:53:59.718Z,61.23
2022-11-20T00:54:59.704Z,53.50
2022-11-20T00:55:59.694Z,60.59
2022-11-20T00:56:59.697Z,60.10
2022-11-20T00:58:03.612Z,58.97
2022-11-20T00:59:00.676Z,60.42
2022-11-20T00:59:59.662Z,58.65
2022-11-20T01:00:59.681Z,61.39
2022-11-20T01:01:59.657Z,62.20
2022-11-20T01:02:59.639Z,59.94
2022-11-20T01:03:59.633Z,65.90
2022-11-20T01:04:59.623Z,60.59
2022-11-20T01:05:59.609Z,57.69
2022-11-20T01:06:59.641Z,62.84
2022-11-20T01:07:59.593Z,59.94
2022-11-20T01:08:59.582Z,55.91
2022-11-20T01:09:59.573Z,61.23
2022-11-20T01:10:59.563Z,62.20
2022-11-20T01:11:59.565Z,63.65
2022-11-20T01:12:59.550Z,61.71
2022-11-20T01:13:59.541Z,56.56
2022-11-20T01:14:59.532Z,60.10
2022-11-20T01:15:59.520Z,63.33
2022-11-20T01:16:59.535Z,61.39
2022-11-20T01:17:59.505Z,58.17
2022-11-20T01:18:59.493Z,63.97
2022-11-20T01:19:59.486Z,60.10
2022-11-20T01:20:59.479Z,62.20
2022-11-20T01:21:59.479Z,63.16
2022-11-20T01:22:59.459Z,63.16
2022-11-20T01:23:59.452Z,62.04
2022-11-20T01:24:59.443Z,61.39
2022-11-20T01:25:59.438Z,63.33
2022-11-20T01:26:59.442Z,60.91
2022-11-20T01:27:59.417Z,63.00
2022-11-20T01:28:59.407Z,61.55
2022-11-20T01:30:01.255Z,61.23
2022-11-20T01:31:00.388Z,61.39
2022-11-20T01:31:59.388Z,60.75
2022-11-20T01:32:59.369Z,60.91
2022-11-20T01:33:59.359Z,59.78
2022-11-20T01:34:59.363Z,57.36
2022-11-20T01:35:59.344Z,60.59
2022-11-20T01:36:59.347Z,61.87
2022-11-20T01:37:59.322Z,62.36
2022-11-20T01:38:59.319Z,59.14
2022-11-20T01:39:59.303Z,62.52
2022-11-20T01:40:59.297Z,61.55
2022-11-20T01:41:59.296Z,55.11
2022-11-20T01:42:59.273Z,61.87
2022-11-20T01:43:59.266Z,62.04
2022-11-20T01:44:59.264Z,62.04
2022-11-20T01:45:59.250Z,63.97
2022-11-20T01:46:59.250Z,64.29
2022-11-20T01:47:59.247Z,63.81
2022-11-20T01:48:59.222Z,62.36
2022-11-20T01:49:59.235Z,64.13
2022-11-20T01:50:59.199Z,68.00
2022-11-20T01:52:00.203Z,63.81
2022-11-20T01:52:59.187Z,61.23
2022-11-20T01:53:59.178Z,57.85
2022-11-20T01:54:59.174Z,60.59
2022-11-20T01:55:59.161Z,60.75
2022-11-20T01:56:59.164Z,60.42
2022-11-20T01:57:59.145Z,57.69
2022-11-20T01:58:59.136Z,61.39
2022-11-20T01:59:59.131Z,57.69
2022-11-20T02:00:59.179Z,63.00
2022-11-20T02:01:59.120Z,59.30
2022-11-20T02:02:59.108Z,58.97
2022-11-20T02:03:59.093Z,63.00
2022-11-20T02:04:59.090Z,63.97
2022-11-20T02:05:59.073Z,61.23
2022-11-20T02:06:59.120Z,60.10
2022-11-20T02:07:59.058Z,62.68
2022-11-20T02:08:59.048Z,64.78
2022-11-20T02:09:59.144Z,61.55
2022-11-20T02:10:59.039Z,55.27
2022-11-20T02:11:59.032Z,57.36
2022-11-20T02:12:59.009Z,60.91
2022-11-20T02:13:59.001Z,60.75
2022-11-20T02:14:59.026Z,57.85
2022-11-20T02:15:58.980Z,63.49
2022-11-20T02:16:58.979Z,60.42
2022-11-20T02:17:58.962Z,57.69
2022-11-20T02:18:58.960Z,61.87
2022-11-20T02:19:58.951Z,61.07
2022-11-20T02:20:58.940Z,61.23
2022-11-20T02:21:58.941Z,61.71
2022-11-20T02:22:58.920Z,57.69
2022-11-20T02:23:58.912Z,57.04
2022-11-20T02:24:58.897Z,63.49
2022-11-20T02:25:58.884Z,56.07
2022-11-20T02:26:58.893Z,65.58
2022-11-20T02:27:58.872Z,58.33
2022-11-20T02:28:58.871Z,62.36
2022-11-20T02:29:58.850Z,60.91
2022-11-20T02:30:58.847Z,60.42
2022-11-20T02:31:58.843Z,61.71
2022-11-20T02:32:58.828Z,63.49
2022-11-20T02:33:58.820Z,63.33
2022-11-20T02:34:58.807Z,60.59
2022-11-20T02:35:58.799Z,58.49
2022-11-20T02:36:58.808Z,59.78
2022-11-20T02:37:58.784Z,59.94
2022-11-20T02:38:58.775Z,61.07
2022-11-20T02:39:58.766Z,59.46
2022-11-20T02:40:58.754Z,58.65
2022-11-20T02:41:58.757Z,63.33
2022-11-20T02:42:58.739Z,62.20
2022-11-20T02:43:58.732Z,61.23
2022-11-20T02:44:58.723Z,58.65
2022-11-20T02:45:58.718Z,63.65
2022-11-20T02:46:58.711Z,57.04
2022-11-20T02:47:58.700Z,59.94
2022-11-20T02:48:58.687Z,57.52
2022-11-20T02:49:58.689Z,59.78
2022-11-20T02:50:58.666Z,58.97
2022-11-20T02:51:58.670Z,60.75
2022-11-20T02:52:58.654Z,62.04
2022-11-20T02:53:58.645Z,61.23
2022-11-20T02:54:58.637Z,59.14
2022-11-20T02:55:58.630Z,56.88
2022-11-20T02:56:58.631Z,59.62
2022-11-20T02:57:58.615Z,61.39
2022-11-20T02:58:58.603Z,62.68
2022-11-20T02:59:58.592Z,62.20
2022-11-20T03:00:58.647Z,60.10
2022-11-20T03:01:58.587Z,64.94
2022-11-20T03:02:58.559Z,63.00
2022-11-20T03:03:58.555Z,62.52
2022-11-20T03:04:58.546Z,60.10
2022-11-20T03:05:58.543Z,61.39
2022-11-20T03:06:58.592Z,58.17
2022-11-20T03:07:58.522Z,59.78
2022-11-20T03:08:58.517Z,57.52
2022-11-20T03:09:58.502Z,63.33
2022-11-20T03:10:58.499Z,64.45
2022-11-20T03:11:58.502Z,57.52
2022-11-20T03:12:58.476Z,61.23
2022-11-20T03:13:58.473Z,59.78
2022-11-20T03:14:58.470Z,56.72
2022-11-20T03:15:58.450Z,56.07
2022-11-20T03:16:58.451Z,61.23
2022-11-20T03:17:58.431Z,67.51
2022-11-20T03:18:58.421Z,58.81
2022-11-20T03:19:58.412Z,63.81
2022-11-20T03:20:58.406Z,61.23
2022-11-20T03:21:58.396Z,59.62
2022-11-20T03:22:59.384Z,63.00
2022-11-20T03:23:58.436Z,59.78
2022-11-20T03:24:58.363Z,65.26
2022-11-20T03:25:58.356Z,60.26
2022-11-20T03:26:58.359Z,59.14
2022-11-20T03:27:58.336Z,59.94
2022-11-20T03:28:58.328Z,60.10
2022-11-20T03:29:58.316Z,59.78
2022-11-20T03:30:58.316Z,63.00
2022-11-20T03:31:58.314Z,59.62
2022-11-20T03:32:58.418Z,62.36
2022-11-20T03:33:58.286Z,59.62
2022-11-20T03:34:58.272Z,62.36
2022-11-20T03:35:58.267Z,62.52
2022-11-20T03:36:58.268Z,60.91
2022-11-20T03:37:58.248Z,58.97
2022-11-20T03:38:58.237Z,62.84
2022-11-20T03:39:58.230Z,58.81
2022-11-20T03:40:58.215Z,61.71
2022-11-20T03:41:58.211Z,61.55
2022-11-20T03:42:58.213Z,65.58
2022-11-20T03:43:58.192Z,57.36
2022-11-20T03:44:58.184Z,56.56
2022-11-20T03:45:58.175Z,58.97
2022-11-20T03:46:58.164Z,56.88
2022-11-20T03:47:58.167Z,61.55
2022-11-20T03:48:58.147Z,58.33
2022-11-20T03:49:58.130Z,59.62
2022-11-20T03:50:59.128Z,60.91
2022-11-20T03:51:58.120Z,59.78
2022-11-20T03:52:58.120Z,62.36
2022-11-20T03:53:58.100Z,61.87
2022-11-20T03:54:58.091Z,59.62
2022-11-20T03:55:58.076Z,58.65
2022-11-20T03:56:58.118Z,53.98
2022-11-20T03:57:58.072Z,59.30
2022-11-20T03:58:58.061Z,61.87
2022-11-20T03:59:58.043Z,57.52
2022-11-20T04:00:58.030Z,61.55
2022-11-20T04:01:58.117Z,61.07
2022-11-20T04:02:58.032Z,58.65
2022-11-20T04:03:58.029Z,62.36
2022-11-20T04:04:58.008Z,59.62
2022-11-20T04:05:58.000Z,60.75
2022-11-20T04:06:58.032Z,59.30
2022-11-20T04:07:57.984Z,61.39
2022-11-20T04:08:57.968Z,59.78
2022-11-20T04:09:57.956Z,59.78
2022-11-20T04:10:57.946Z,60.26
2022-11-20T04:11:57.939Z,63.65
2022-11-20T04:12:57.939Z,56.40
2022-11-20T04:13:57.921Z,59.14
2022-11-20T04:14:57.910Z,60.42
2022-11-20T04:15:57.899Z,62.36
2022-11-20T04:16:57.940Z,58.65
2022-11-20T04:17:57.889Z,62.36
2022-11-20T04:18:57.872Z,58.33
2022-11-20T04:19:57.866Z,60.10
2022-11-20T04:20:57.851Z,60.26
2022-11-20T04:21:57.843Z,59.62
2022-11-20T04:22:57.842Z,63.16
2022-11-20T04:23:57.824Z,61.71
2022-11-20T04:24:57.815Z,62.84
2022-11-20T04:25:57.801Z,62.20
2022-11-20T04:26:57.792Z,61.71
2022-11-20T04:27:57.803Z,60.26
2022-11-20T04:28:57.776Z,58.81
2022-11-20T04:29:57.767Z,58.17
2022-11-20T04:30:57.757Z,63.97
2022-11-20T04:31:57.744Z,65.58
2022-11-20T04:32:57.748Z,61.07
2022-11-20T04:33:57.730Z,62.20
2022-11-20T04:34:57.724Z,59.62
2022-11-20T04:35:57.722Z,61.87
2022-11-20T04:36:57.705Z,60.10
2022-11-20T04:37:57.709Z,60.91
2022-11-20T04:38:57.686Z,66.71
2022-11-20T04:39:57.677Z,62.52
2022-11-20T04:40:57.686Z,59.78
2022-11-20T04:41:57.663Z,63.97
2022-11-20T04:42:57.661Z,62.04
2022-11-20T04:43:57.632Z,61.71
2022-11-20T04:44:58.632Z,61.39
2022-11-20T04:45:57.623Z,60.91
2022-11-20T04:46:57.612Z,61.39
2022-11-20T04:47:57.616Z,61.07
2022-11-20T04:48:57.593Z,60.75
2022-11-20T04:49:57.642Z,61.23
2022-11-20T04:50:57.574Z,59.14
2022-11-20T04:51:57.575Z,63.33
2022-11-20T04:52:57.571Z,63.00
2022-11-20T04:53:57.551Z,60.59
2022-11-20T04:54:57.539Z,62.68
2022-11-20T04:55:57.534Z,62.68
2022-11-20T04:56:57.522Z,60.59
2022-11-20T04:57:57.522Z,61.07
2022-11-20T04:58:57.520Z,58.81
2022-11-20T04:59:57.502Z,59.30
2022-11-20T05:00:57.481Z,62.04
2022-11-20T05:01:57.511Z,63.81
2022-11-20T05:02:57.478Z,62.36
2022-11-20T05:03:57.462Z,60.10
2022-11-20T05:04:57.466Z,63.49
2022-11-20T05:05:57.444Z,62.20
2022-11-20T05:06:57.472Z,61.39
2022-11-20T05:07:57.433Z,59.14
2022-11-20T05:08:57.424Z,63.00
2022-11-20T05:09:57.407Z,63.65
2022-11-20T05:10:57.390Z,62.52
2022-11-20T05:11:57.387Z,64.29
2022-11-20T05:12:57.392Z,60.59
2022-11-20T05:13:57.371Z,60.91
2022-11-20T05:14:57.360Z,61.23
2022-11-20T05:15:57.352Z,66.06
2022-11-20T05:16:57.343Z,61.07
2022-11-20T05:17:57.351Z,61.71
2022-11-20T05:18:57.324Z,64.29
2022-11-20T05:19:57.318Z,58.81
2022-11-20T05:20:57.309Z,62.52
2022-11-20T05:21:57.296Z,62.84
2022-11-20T05:22:57.301Z,62.20
2022-11-20T05:23:57.280Z,63.00
2022-11-20T05:24:57.267Z,63.97
2022-11-20T05:25:59.099Z,61.71
2022-11-20T05:26:58.247Z,61.07
2022-11-20T05:27:57.254Z,63.33
2022-11-20T05:28:57.256Z,61.55
2022-11-20T05:29:57.228Z,65.26
2022-11-20T05:30:57.212Z,66.06
2022-11-20T05:31:57.207Z,69.29
2022-11-20T05:32:57.253Z,65.42
2022-11-20T05:33:57.194Z,67.35
2022-11-20T05:34:57.178Z,67.19
2022-11-20T05:35:57.171Z,64.13
2022-11-20T05:36:57.166Z,60.91
2022-11-20T05:37:57.160Z,63.33
2022-11-20T05:39:01.476Z,63.16
2022-11-20T05:39:58.131Z,69.61
2022-11-20T05:40:57.124Z,64.78
2022-11-20T05:41:57.113Z,63.33
2022-11-20T05:42:57.103Z,62.84
2022-11-20T05:43:58.098Z,65.10
2022-11-20T05:44:57.086Z,60.75
2022-11-20T05:45:57.080Z,62.36
2022-11-20T05:46:57.068Z,64.29
2022-11-20T05:47:57.094Z,62.52
2022-11-20T05:48:57.049Z,61.71
2022-11-20T05:49:57.042Z,61.07
2022-11-20T05:50:57.033Z,62.36
2022-11-20T05:51:57.026Z,66.23
2022-11-20T05:52:57.030Z,67.35
2022-11-20T05:53:57.007Z,68.16
2022-11-20T05:54:56.998Z,59.78
2022-11-20T05:55:56.991Z,66.23
2022-11-20T05:56:56.983Z,58.65
2022-11-20T05:58:28.887Z,62.68
2022-11-20T05:58:56.969Z,64.29
2022-11-20T05:59:56.953Z,62.20
2022-11-20T06:00:56.947Z,64.94
2022-11-20T06:01:56.968Z,65.10
2022-11-20T06:02:56.965Z,67.03
2022-11-20T06:03:56.922Z,60.26
2022-11-20T06:04:56.906Z,65.42
2022-11-20T06:05:56.895Z,65.58
2022-11-20T06:06:57.056Z,66.06
2022-11-20T06:07:56.880Z,60.42
2022-11-20T06:08:56.871Z,65.90
2022-11-20T06:09:57.855Z,64.78
2022-11-20T06:10:56.854Z,66.39
2022-11-20T06:11:56.839Z,62.04
2022-11-20T06:12:56.829Z,62.52
2022-11-20T06:13:56.834Z,68.32
2022-11-20T06:14:56.810Z,64.61
2022-11-20T06:15:56.805Z,64.78
2022-11-20T06:16:56.797Z,63.16
2022-11-20T06:17:56.790Z,65.58
2022-11-20T06:18:56.786Z,67.84
2022-11-20T06:19:56.774Z,66.39
2022-11-20T06:20:56.753Z,74.44
2022-11-20T06:21:57.757Z,69.93
2022-11-20T06:22:56.745Z,63.81
2022-11-20T06:23:56.749Z,63.33
2022-11-20T06:24:56.729Z,68.16
2022-11-20T06:25:56.719Z,68.64
2022-11-20T06:26:56.707Z,67.51
2022-11-20T06:27:56.703Z,67.35
2022-11-20T06:28:56.702Z,66.55
2022-11-20T06:29:56.683Z,68.16
2022-11-20T06:30:56.673Z,69.61
2022-11-20T06:31:56.664Z,62.84
2022-11-20T06:32:56.654Z,63.49
2022-11-20T06:33:56.677Z,70.09
2022-11-20T06:34:56.636Z,67.19
2022-11-20T06:36:00.019Z,64.94
2022-11-20T06:36:58.617Z,69.45
2022-11-20T06:37:56.607Z,68.64
2022-11-20T06:38:56.635Z,66.39
2022-11-20T06:39:56.592Z,67.35
2022-11-20T06:40:56.584Z,69.13
2022-11-20T06:41:58.988Z,68.96
2022-11-20T06:42:57.562Z,68.00
2022-11-20T06:43:56.563Z,67.03
2022-11-20T06:44:56.539Z,67.03
2022-11-20T06:45:56.534Z,67.35
2022-11-20T06:46:56.531Z,66.87
2022-11-20T06:47:56.515Z,68.48
2022-11-20T06:48:56.514Z,67.03
2022-11-20T06:49:56.494Z,69.29
2022-11-20T06:50:56.495Z,69.61
2022-11-20T06:51:56.475Z,70.25
2022-11-20T06:52:56.468Z,65.10
2022-11-20T06:53:56.479Z,69.45
2022-11-20T06:54:56.450Z,68.64
2022-11-20T06:55:56.444Z,68.80
2022-11-20T06:56:56.436Z,74.60
2022-11-20T06:57:56.427Z,68.80
2022-11-20T06:58:56.431Z,69.77
2022-11-20T06:59:56.406Z,65.42
2022-11-20T07:00:56.419Z,72.83
2022-11-20T07:01:56.391Z,68.80
2022-11-20T07:02:56.384Z,71.06
2022-11-20T07:03:56.388Z,70.58
2022-11-20T07:04:56.369Z,70.42
2022-11-20T07:05:56.359Z,72.99
2022-11-20T07:06:56.344Z,72.83
2022-11-20T07:07:56.335Z,72.19
2022-11-20T07:08:56.361Z,70.90
2022-11-20T07:09:56.321Z,65.58
2022-11-20T07:10:56.310Z,70.90
2022-11-20T07:11:56.297Z,70.90
2022-11-20T07:12:56.290Z,71.70
2022-11-20T07:13:56.290Z,70.09
2022-11-20T07:14:56.274Z,68.80
2022-11-20T07:15:56.330Z,72.03
2022-11-20T07:16:56.257Z,69.13
2022-11-20T07:17:56.243Z,71.22
2022-11-20T07:18:56.245Z,64.45
2022-11-20T07:19:56.231Z,68.48
2022-11-20T07:20:56.223Z,67.51
2022-11-20T07:21:56.210Z,66.55
2022-11-20T07:22:56.198Z,68.80
2022-11-20T07:23:56.204Z,68.48
2022-11-20T07:24:56.183Z,71.87
2022-11-20T07:25:56.174Z,71.38
2022-11-20T07:26:56.166Z,70.90
2022-11-20T07:27:56.156Z,69.61
2022-11-20T07:28:56.162Z,69.61
2022-11-20T07:29:56.139Z,68.64
2022-11-20T07:30:56.131Z,66.39
2022-11-20T07:31:56.120Z,67.84
2022-11-20T07:32:56.111Z,68.64
2022-11-20T07:33:56.110Z,72.51
2022-11-20T07:34:56.095Z,69.29
2022-11-20T07:35:56.083Z,70.42
2022-11-20T07:36:56.078Z,69.61
2022-11-20T07:37:56.076Z,68.32
2022-11-20T07:38:56.072Z,67.51
2022-11-20T07:39:56.052Z,71.22
2022-11-20T07:40:56.042Z,71.22
2022-11-20T07:41:56.030Z,69.29
2022-11-20T07:42:56.021Z,70.25
2022-11-20T07:43:56.023Z,69.29
2022-11-20T07:44:56.007Z,69.61
2022-11-20T07:45:56.001Z,67.84
2022-11-20T07:46:55.992Z,67.84
2022-11-20T07:47:55.979Z,66.55
2022-11-20T07:48:55.982Z,68.32
2022-11-20T07:49:55.966Z,66.39
2022-11-20T07:50:55.955Z,70.25
2022-11-20T07:51:58.303Z,67.84
2022-11-20T07:52:56.938Z,68.16
2022-11-20T07:53:55.936Z,70.25
2022-11-20T07:54:55.916Z,69.45
2022-11-20T07:55:55.902Z,69.13
2022-11-20T07:56:55.895Z,70.09
2022-11-20T07:57:55.890Z,69.61
2022-11-20T07:58:55.890Z,70.09
2022-11-20T07:59:55.871Z,69.29
2022-11-20T08:00:55.935Z,67.51
2022-11-20T08:01:55.857Z,68.64
2022-11-20T08:02:55.848Z,71.22
2022-11-20T08:03:55.849Z,68.64
2022-11-20T08:04:55.830Z,70.25
2022-11-20T08:05:55.820Z,76.54
2022-11-20T08:06:55.815Z,68.64
2022-11-20T08:07:55.805Z,70.74
2022-11-20T08:08:55.802Z,68.64
2022-11-20T08:09:55.786Z,69.45
2022-11-20T08:10:55.779Z,70.25
2022-11-20T08:11:55.766Z,68.16
2022-11-20T08:12:55.765Z,72.19
2022-11-20T08:13:55.762Z,67.19
2022-11-20T08:14:55.812Z,69.29
2022-11-20T08:15:55.726Z,70.90
2022-11-20T08:16:55.721Z,68.96
2022-11-20T08:18:23.301Z,70.09
2022-11-20T08:18:57.712Z,64.78
2022-11-20T08:19:55.691Z,70.25
2022-11-20T08:20:55.687Z,68.64
2022-11-20T08:21:55.675Z,69.77
2022-11-20T08:22:55.666Z,69.13
2022-11-20T08:23:55.687Z,67.19
2022-11-20T08:24:55.648Z,69.93
2022-11-20T08:25:55.651Z,70.90
2022-11-20T08:26:55.631Z,68.96
2022-11-20T08:28:00.144Z,71.22
2022-11-20T08:28:57.621Z,70.42
2022-11-20T08:29:55.600Z,70.42
2022-11-20T08:30:55.617Z,69.61
2022-11-20T08:31:55.593Z,71.22
2022-11-20T08:32:55.577Z,71.22
2022-11-20T08:33:55.578Z,69.29
2022-11-20T08:34:55.558Z,68.64
2022-11-20T08:35:55.550Z,68.16
2022-11-20T08:36:55.545Z,69.93
2022-11-20T08:37:55.532Z,70.42
2022-11-20T08:38:55.539Z,70.25
2022-11-20T08:39:55.521Z,67.35
2022-11-20T08:40:55.505Z,69.61
2022-11-20T08:41:55.496Z,68.96
2022-11-20T08:42:55.481Z,68.16
2022-11-20T08:43:56.495Z,68.16
2022-11-20T08:44:55.475Z,70.74
2022-11-20T08:45:55.463Z,71.70
2022-11-20T08:46:55.471Z,72.03
2022-11-20T08:47:55.446Z,72.35
2022-11-20T08:48:55.445Z,75.41
2022-11-20T08:49:55.425Z,72.99
2022-11-20T08:50:55.421Z,72.51
2022-11-20T08:51:55.409Z,72.35
2022-11-20T08:52:55.401Z,71.38
2022-11-20T08:53:55.408Z,72.83
2022-11-20T08:54:55.379Z,68.48
2022-11-20T08:55:55.373Z,72.35
2022-11-20T08:56:55.365Z,68.96
2022-11-20T08:57:55.357Z,70.25
2022-11-20T08:59:18.301Z,68.16
2022-11-20T09:00:06.310Z,71.70
2022-11-20T09:00:57.387Z,68.64
2022-11-20T09:01:55.322Z,71.22
2022-11-20T09:02:55.311Z,71.22
2022-11-20T09:03:55.319Z,66.87
2022-11-20T09:04:55.298Z,70.74
2022-11-20T09:05:55.288Z,67.51
2022-11-20T09:06:55.277Z,72.83
2022-11-20T09:07:55.268Z,70.90
2022-11-20T09:08:55.255Z,71.06
2022-11-20T09:10:16.800Z,68.96
2022-11-20T09:10:57.246Z,69.77
2022-11-20T09:11:55.230Z,70.09
2022-11-20T09:12:55.222Z,68.48
2022-11-20T09:13:55.211Z,68.48
2022-11-20T09:14:55.307Z,68.80
2022-11-20T09:15:55.193Z,70.25
2022-11-20T09:16:55.188Z,72.19
2022-11-20T09:17:55.180Z,70.58
2022-11-20T09:19:13.516Z,71.22
2022-11-20T09:19:57.173Z,71.22
2022-11-20T09:20:55.186Z,70.25
2022-11-20T09:21:59.593Z,70.25
2022-11-20T09:22:56.135Z,71.06
2022-11-20T09:23:55.125Z,69.13
2022-11-20T09:24:55.127Z,70.90
2022-11-20T09:25:55.145Z,70.25
2022-11-20T09:26:55.100Z,68.16
2022-11-20T09:27:55.091Z,67.35
2022-11-20T09:28:58.111Z,68.32
2022-11-20T09:29:56.084Z,66.23
2022-11-20T09:30:55.065Z,63.16
2022-11-20T09:31:55.054Z,69.29
2022-11-20T09:32:55.050Z,67.84
2022-11-20T09:33:55.041Z,67.68
2022-11-20T09:34:55.036Z,69.29
2022-11-20T09:35:55.019Z,69.61
2022-11-20T09:36:55.020Z,68.48
2022-11-20T09:37:54.997Z,69.13
2022-11-20T09:38:54.998Z,69.61
2022-11-20T09:39:55.001Z,68.64
2022-11-20T09:40:54.979Z,68.00
2022-11-20T09:41:54.966Z,68.16
2022-11-20T09:42:54.961Z,70.42
2022-11-20T09:43:54.982Z,71.38
2022-11-20T09:44:54.960Z,72.03
2022-11-20T09:45:54.934Z,66.39
2022-11-20T09:46:54.925Z,68.48
2022-11-20T09:47:54.932Z,66.55
2022-11-20T09:48:54.912Z,67.19
2022-11-20T09:49:54.907Z,66.55
2022-11-20T09:50:54.890Z,67.03
2022-11-20T09:51:54.878Z,66.06
2022-11-20T09:52:54.864Z,67.03
2022-11-20T09:53:54.860Z,67.84
2022-11-20T09:54:54.864Z,68.16
2022-11-20T09:55:54.841Z,66.23
2022-11-20T09:56:54.833Z,66.23
2022-11-20T09:57:54.829Z,67.51
2022-11-20T09:58:54.855Z,67.84
2022-11-20T09:59:54.811Z,68.96
2022-11-20T10:00:54.864Z,68.00
2022-11-20T10:01:54.795Z,69.29
2022-11-20T10:02:54.779Z,69.93
2022-11-20T10:03:54.781Z,69.93
2022-11-20T10:04:54.772Z,72.67
2022-11-20T10:05:54.751Z,69.45
2022-11-20T10:07:10.520Z,68.80
2022-11-20T10:07:56.820Z,68.16
2022-11-20T10:08:54.733Z,68.96
2022-11-20T10:09:54.734Z,68.48
2022-11-20T10:10:54.707Z,68.00
2022-11-20T10:11:54.700Z,67.35
2022-11-20T10:12:54.690Z,66.23
2022-11-20T10:13:54.679Z,66.23
2022-11-20T10:14:54.756Z,65.42
2022-11-20T10:15:54.661Z,66.23
2022-11-20T10:16:54.653Z,65.74
2022-11-20T10:17:54.650Z,64.78
2022-11-20T10:18:54.637Z,67.68
2022-11-20T10:19:54.638Z,68.00
2022-11-20T10:20:54.623Z,67.84
2022-11-20T10:21:54.625Z,64.78
2022-11-20T10:22:54.606Z,67.68
2022-11-20T10:23:54.596Z,67.03
2022-11-20T10:24:54.595Z,67.51
2022-11-20T10:25:54.580Z,68.64
2022-11-20T10:26:54.567Z,67.03
2022-11-20T10:27:54.560Z,68.32
2022-11-20T10:28:59.201Z,68.64
2022-11-20T10:29:56.551Z,67.19
2022-11-20T10:30:54.528Z,67.51
2022-11-20T10:31:54.522Z,68.64
2022-11-20T10:32:54.512Z,69.61
2022-11-20T10:34:11.442Z,67.19
2022-11-20T10:34:56.506Z,66.87
2022-11-20T10:35:54.481Z,68.16
2022-11-20T10:36:54.475Z,67.84
2022-11-20T10:37:54.479Z,65.42
2022-11-20T10:38:54.460Z,66.23
2022-11-20T10:39:54.461Z,68.80
2022-11-20T10:40:54.436Z,68.32
2022-11-20T10:41:54.429Z,67.84
2022-11-20T10:42:54.421Z,67.84
2022-11-20T10:43:54.410Z,67.19
2022-11-20T10:44:56.653Z,65.26
2022-11-20T10:45:55.391Z,69.61
2022-11-20T10:46:54.380Z,66.39
2022-11-20T10:47:54.371Z,65.26
2022-11-20T10:48:54.366Z,67.35
2022-11-20T10:49:54.365Z,65.74
2022-11-20T10:50:54.381Z,65.10
2022-11-20T10:51:54.335Z,66.55
2022-11-20T10:52:54.322Z,65.58
2022-11-20T10:53:54.321Z,66.71
2022-11-20T10:54:54.322Z,64.61
2022-11-20T10:55:54.302Z,65.74
2022-11-20T10:56:54.294Z,65.26
2022-11-20T10:57:54.282Z,66.23
2022-11-20T10:58:54.271Z,66.06
2022-11-20T10:59:54.278Z,66.71
2022-11-20T11:00:54.355Z,66.39
2022-11-20T11:01:54.247Z,66.06
2022-11-20T11:02:54.246Z,66.87
2022-11-20T11:03:54.225Z,67.35
2022-11-20T11:04:54.226Z,67.35
2022-11-20T11:05:54.206Z,68.64
2022-11-20T11:06:54.194Z,68.32
2022-11-20T11:07:54.185Z,70.42
2022-11-20T11:08:54.183Z,67.84
2022-11-20T11:09:54.183Z,69.61
2022-11-20T11:10:54.198Z,69.93
2022-11-20T11:11:54.182Z,67.51
2022-11-20T11:12:54.146Z,69.77
2022-11-20T11:13:54.157Z,69.13
2022-11-20T11:14:54.137Z,68.80
2022-11-20T11:15:54.116Z,70.74
2022-11-20T11:16:54.106Z,70.90
2022-11-20T11:17:54.098Z,69.61
2022-11-20T11:18:54.091Z,70.09
2022-11-20T11:19:54.093Z,69.77
2022-11-20T11:20:54.071Z,69.93
2022-11-20T11:21:55.793Z,71.22
2022-11-20T11:22:55.053Z,70.09
2022-11-20T11:23:55.557Z,70.74
2022-11-20T11:24:54.049Z,71.22
2022-11-20T11:25:54.023Z,70.90
2022-11-20T11:26:54.015Z,68.64
2022-11-20T11:27:54.007Z,71.22
2022-11-20T11:28:53.998Z,69.29
2022-11-20T11:29:54.003Z,71.38
2022-11-20T11:30:53.989Z,69.93
2022-11-20T11:31:53.972Z,72.19
2022-11-20T11:32:54.002Z,70.09
2022-11-20T11:33:53.955Z,71.06
2022-11-20T11:34:53.960Z,71.70
2022-11-20T11:35:53.943Z,71.22
2022-11-20T11:36:53.927Z,70.25
2022-11-20T11:37:53.919Z,70.74
2022-11-20T11:38:53.908Z,69.61
2022-11-20T11:40:16.415Z,72.35
2022-11-20T11:40:55.968Z,73.80
2022-11-20T11:41:53.883Z,72.35
2022-11-20T11:42:53.869Z,72.19
2022-11-20T11:43:53.850Z,73.64
2022-11-20T11:44:54.863Z,70.90
2022-11-20T11:45:53.845Z,72.19
2022-11-20T11:46:53.830Z,72.83
2022-11-20T11:47:53.822Z,71.38
2022-11-20T11:48:53.811Z,71.22
2022-11-20T11:49:53.844Z,71.22
2022-11-20T11:50:54.828Z,72.03
2022-11-20T11:51:53.784Z,73.80
2022-11-20T11:52:53.772Z,71.70
2022-11-20T11:53:53.762Z,72.03
2022-11-20T11:54:53.763Z,71.06
2022-11-20T11:55:53.743Z,72.03
2022-11-20T11:56:53.897Z,72.51
2022-11-20T11:57:53.733Z,72.03
2022-11-20T11:58:53.710Z,73.48
2022-11-20T11:59:53.718Z,72.83
2022-11-20T12:00:53.697Z,70.90
2022-11-20T12:01:53.720Z,71.54
2022-11-20T12:02:53.817Z,71.22
2022-11-20T12:03:53.670Z,72.19
2022-11-20T12:04:53.673Z,72.19
2022-11-20T12:05:53.649Z,71.70
2022-11-20T12:06:53.638Z,72.51
2022-11-20T12:07:53.652Z,72.83
2022-11-20T12:08:53.631Z,72.99
2022-11-20T12:09:53.636Z,72.99
2022-11-20T12:10:53.619Z,72.83
2022-11-20T12:11:53.636Z,70.58
2022-11-20T12:12:53.582Z,71.87
2022-11-20T12:13:53.577Z,70.58
2022-11-20T12:14:53.620Z,72.35
2022-11-20T12:15:53.549Z,71.38
2022-11-20T12:16:53.548Z,72.67
2022-11-20T12:17:53.537Z,72.67
2022-11-20T12:18:53.526Z,72.03
2022-11-20T12:19:53.533Z,72.67
2022-11-20T12:20:53.508Z,72.83
2022-11-20T12:21:57.242Z,71.38
2022-11-20T12:22:55.494Z,71.87
2022-11-20T12:23:53.513Z,73.48
2022-11-20T12:24:53.475Z,73.32
2022-11-20T12:25:53.480Z,72.99
2022-11-20T12:26:53.459Z,72.83
2022-11-20T12:27:53.451Z,72.35
2022-11-20T12:28:53.440Z,73.32
2022-11-20T12:29:53.447Z,71.70
2022-11-20T12:30:53.454Z,71.22
2022-11-20T12:31:53.492Z,70.74
2022-11-20T12:32:53.400Z,72.99
2022-11-20T12:33:53.392Z,72.03
2022-11-20T12:34:53.383Z,71.70
2022-11-20T12:35:53.383Z,71.54
2022-11-20T12:36:53.361Z,73.48
2022-11-20T12:37:53.355Z,72.03
2022-11-20T12:38:53.342Z,72.51
2022-11-20T12:39:53.336Z,72.99
2022-11-20T12:40:53.337Z,72.35
2022-11-20T12:41:53.314Z,72.35
2022-11-20T12:42:53.310Z,71.38
2022-11-20T12:43:53.303Z,71.87
2022-11-20T12:44:53.289Z,71.70
2022-11-20T12:45:53.293Z,71.22
2022-11-20T12:46:53.270Z,71.38
2022-11-20T12:47:53.349Z,71.54
2022-11-20T12:48:53.289Z,72.99
2022-11-20T12:49:53.243Z,73.32
2022-11-20T12:51:14.063Z,70.74
2022-11-20T12:51:55.223Z,72.35